ORMM

Basrah International Airport

Basrah, Iraq
TAF ORMM 241600Z 2418/2518 30010KT CAVOK
Issued Valid From Valid To
Sep-24 @ 16:00 UTC
(3 hours ago)
Sep-24 @ 18:00 UTC
(an hour ago)
Sep-25 @ 18:00 UTC
(in 23 hours)
Sep-24 @ 18:00 to Sep-25 @ 18:00
TAF ORMM 241600Z 2418/2518 30010KT CAVOK
Wind Visibility Clouds Conditions
300° at 10 knots 10,000+ meters
  • No significant clouds
TAF ORMM 241600Z 2418/2518 30010KT CAVOK
Issued Sep-24 @ 16:00 UTC
(3 hours ago)
Valid From Sep-24 @ 18:00 UTC
(an hour ago)
Valid To Sep-25 @ 18:00 UTC
(in 23 hours)
Sep-24 @ 18:00 - Sep-25 @ 18:00
Wind Visibility
300° at 10 knots 10,000+ meters
Clouds
  • No significant clouds
Conditions